sensor_id;sensor_type;location;lat;lon;timestamp;temperature;humidity
20284;DHT22;10301;50.832;4.080;2023-04-24T00:00:04;10.10;99.90
20284;DHT22;10301;50.832;4.080;2023-04-24T00:02:31;9.90;99.90
20284;DHT22;10301;50.832;4.080;2023-04-24T00:04:58;10.00;99.90
20284;DHT22;10301;50.832;4.080;2023-04-24T00:07:28;10.00;99.90
20284;DHT22;10301;50.832;4.080;2023-04-24T00:09:54;10.10;99.90
20284;DHT22;10301;50.832;4.080;2023-04-24T00:12:20;10.20;99.90
20284;DHT22;10301;50.832;4.080;2023-04-24T00:14:46;10.20;99.90
20284;DHT22;10301;50.832;4.080;2023-04-24T00:17:11;10.20;99.90
20284;DHT22;10301;50.832;4.080;2023-04-24T00:19:37;10.20;99.90
20284;DHT22;10301;50.832;4.080;2023-04-24T00:22:03;10.30;99.90
20284;DHT22;10301;50.832;4.080;2023-04-24T00:24:29;10.30;99.90
20284;DHT22;10301;50.832;4.080;2023-04-24T00:26:54;10.20;99.90
20284;DHT22;10301;50.832;4.080;2023-04-24T00:29:20;10.30;99.90
20284;DHT22;10301;50.832;4.080;2023-04-24T00:31:46;10.30;99.80
20284;DHT22;10301;50.832;4.080;2023-04-24T00:34:11;10.20;99.90
20284;DHT22;10301;50.832;4.080;2023-04-24T00:36:37;10.20;99.90
20284;DHT22;10301;50.832;4.080;2023-04-24T00:39:03;10.20;99.90
20284;DHT22;10301;50.832;4.080;2023-04-24T00:41:29;9.90;99.90
20284;DHT22;10301;50.832;4.080;2023-04-24T00:43:55;9.90;99.90
20284;DHT22;10301;50.832;4.080;2023-04-24T00:46:21;10.00;99.90
20284;DHT22;10301;50.832;4.080;2023-04-24T00:48:47;10.00;99.90
20284;DHT22;10301;50.832;4.080;2023-04-24T00:51:13;9.90;99.90
20284;DHT22;10301;50.832;4.080;2023-04-24T00:53:38;9.90;99.90
20284;DHT22;10301;50.832;4.080;2023-04-24T00:56:04;9.80;99.90
20284;DHT22;10301;50.832;4.080;2023-04-24T00:58:31;9.60;99.90
20284;DHT22;10301;50.832;4.080;2023-04-24T01:00:57;9.60;99.90
20284;DHT22;10301;50.832;4.080;2023-04-24T01:03:26;9.80;99.90
20284;DHT22;10301;50.832;4.080;2023-04-24T01:05:54;9.90;99.90
20284;DHT22;10301;50.832;4.080;2023-04-24T01:08:23;9.90;99.90
20284;DHT22;10301;50.832;4.080;2023-04-24T01:10:51;9.90;99.90
20284;DHT22;10301;50.832;4.080;2023-04-24T01:13:18;9.80;99.90
20284;DHT22;10301;50.832;4.080;2023-04-24T01:15:44;9.90;99.90
20284;DHT22;10301;50.832;4.080;2023-04-24T01:18:10;9.80;99.90
20284;DHT22;10301;50.832;4.080;2023-04-24T01:20:39;9.90;99.90
20284;DHT22;10301;50.832;4.080;2023-04-24T01:23:05;9.90;99.90
20284;DHT22;10301;50.832;4.080;2023-04-24T01:25:31;9.80;99.90
20284;DHT22;10301;50.832;4.080;2023-04-24T01:27:58;9.70;99.90
20284;DHT22;10301;50.832;4.080;2023-04-24T01:30:24;9.70;99.90
20284;DHT22;10301;50.832;4.080;2023-04-24T01:32:50;9.70;99.90
20284;DHT22;10301;50.832;4.080;2023-04-24T01:35:17;9.70;99.90
20284;DHT22;10301;50.832;4.080;2023-04-24T01:37:42;9.80;99.90
20284;DHT22;10301;50.832;4.080;2023-04-24T01:40:09;9.80;99.90
20284;DHT22;10301;50.832;4.080;2023-04-24T01:42:35;9.80;99.90
20284;DHT22;10301;50.832;4.080;2023-04-24T01:45:02;9.90;99.90
20284;DHT22;10301;50.832;4.080;2023-04-24T01:47:30;9.90;99.90
20284;DHT22;10301;50.832;4.080;2023-04-24T01:49:55;9.80;99.90
20284;DHT22;10301;50.832;4.080;2023-04-24T01:52:21;9.70;99.90
20284;DHT22;10301;50.832;4.080;2023-04-24T01:54:47;9.70;99.90
20284;DHT22;10301;50.832;4.080;2023-04-24T01:57:14;9.80;99.90
20284;DHT22;10301;50.832;4.080;2023-04-24T01:59:40;9.70;99.90
20284;DHT22;10301;50.832;4.080;2023-04-24T02:02:05;9.70;99.90
20284;DHT22;10301;50.832;4.080;2023-04-24T02:04:32;9.60;99.90
20284;DHT22;10301;50.832;4.080;2023-04-24T02:06:58;9.70;99.90
20284;DHT22;10301;50.832;4.080;2023-04-24T02:09:24;9.90;99.90
20284;DHT22;10301;50.832;4.080;2023-04-24T02:11:50;9.80;99.90
20284;DHT22;10301;50.832;4.080;2023-04-24T02:14:16;9.90;99.90
20284;DHT22;10301;50.832;4.080;2023-04-24T02:16:41;9.90;99.90
20284;DHT22;10301;50.832;4.080;2023-04-24T02:19:07;9.90;99.90
20284;DHT22;10301;50.832;4.080;2023-04-24T02:21:33;9.90;99.90
20284;DHT22;10301;50.832;4.080;2023-04-24T02:23:59;9.80;99.90
20284;DHT22;10301;50.832;4.080;2023-04-24T02:26:25;9.60;99.90
20284;DHT22;10301;50.832;4.080;2023-04-24T02:28:51;9.70;99.90
20284;DHT22;10301;50.832;4.080;2023-04-24T02:31:17;9.60;99.90
20284;DHT22;10301;50.832;4.080;2023-04-24T02:33:42;9.60;99.90
20284;DHT22;10301;50.832;4.080;2023-04-24T02:36:08;9.60;99.90
20284;DHT22;10301;50.832;4.080;2023-04-24T02:38:34;9.50;99.90
20284;DHT22;10301;50.832;4.080;2023-04-24T02:41:00;9.50;99.90
20284;DHT22;10301;50.832;4.080;2023-04-24T02:43:27;9.50;99.90
20284;DHT22;10301;50.832;4.080;2023-04-24T02:45:53;9.50;99.90
20284;DHT22;10301;50.832;4.080;2023-04-24T02:48:18;9.40;99.90
20284;DHT22;10301;50.832;4.080;2023-04-24T02:50:46;9.50;99.90
20284;DHT22;10301;50.832;4.080;2023-04-24T02:53:11;9.60;99.90
20284;DHT22;10301;50.832;4.080;2023-04-24T02:55:37;9.70;99.90
20284;DHT22;10301;50.832;4.080;2023-04-24T02:58:03;9.70;99.90
20284;DHT22;10301;50.832;4.080;2023-04-24T03:00:28;9.60;99.90
20284;DHT22;10301;50.832;4.080;2023-04-24T03:02:55;9.50;99.90
20284;DHT22;10301;50.832;4.080;2023-04-24T03:05:21;9.40;99.90
20284;DHT22;10301;50.832;4.080;2023-04-24T03:07:46;9.30;99.90
20284;DHT22;10301;50.832;4.080;2023-04-24T03:10:12;9.50;99.90
20284;DHT22;10301;50.832;4.080;2023-04-24T03:12:38;9.40;99.90
20284;DHT22;10301;50.832;4.080;2023-04-24T03:15:04;9.40;99.90
20284;DHT22;10301;50.832;4.080;2023-04-24T03:17:30;9.30;99.90
20284;DHT22;10301;50.832;4.080;2023-04-24T03:19:55;9.40;99.90
20284;DHT22;10301;50.832;4.080;2023-04-24T03:22:21;9.50;99.90
20284;DHT22;10301;50.832;4.080;2023-04-24T03:24:47;9.70;99.90
20284;DHT22;10301;50.832;4.080;2023-04-24T03:27:12;9.60;99.90
20284;DHT22;10301;50.832;4.080;2023-04-24T03:29:38;9.70;99.90
20284;DHT22;10301;50.832;4.080;2023-04-24T03:32:03;9.50;99.90
20284;DHT22;10301;50.832;4.080;2023-04-24T03:34:29;9.50;99.90
20284;DHT22;10301;50.832;4.080;2023-04-24T03:36:55;9.60;99.90
20284;DHT22;10301;50.832;4.080;2023-04-24T03:39:20;9.60;99.90
20284;DHT22;10301;50.832;4.080;2023-04-24T03:41:46;9.70;99.90
20284;DHT22;10301;50.832;4.080;2023-04-24T03:44:11;9.70;99.90
20284;DHT22;10301;50.832;4.080;2023-04-24T03:46:37;9.90;99.90
20284;DHT22;10301;50.832;4.080;2023-04-24T03:49:03;9.90;99.90
20284;DHT22;10301;50.832;4.080;2023-04-24T03:51:28;9.80;99.90
20284;DHT22;10301;50.832;4.080;2023-04-24T03:53:55;9.70;99.90
20284;DHT22;10301;50.832;4.080;2023-04-24T03:56:21;9.80;99.90
20284;DHT22;10301;50.832;4.080;2023-04-24T03:58:47;9.90;99.90
20284;DHT22;10301;50.832;4.080;2023-04-24T04:01:12;9.90;99.90
20284;DHT22;10301;50.832;4.080;2023-04-24T04:03:38;9.80;99.90
20284;DHT22;10301;50.832;4.080;2023-04-24T04:06:04;10.00;99.90
20284;DHT22;10301;50.832;4.080;2023-04-24T04:08:30;9.90;99.90
20284;DHT22;10301;50.832;4.080;2023-04-24T04:10:55;9.90;99.90
20284;DHT22;10301;50.832;4.080;2023-04-24T04:13:21;9.90;99.90
20284;DHT22;10301;50.832;4.080;2023-04-24T04:15:47;9.90;99.90
20284;DHT22;10301;50.832;4.080;2023-04-24T04:18:12;9.90;99.90
20284;DHT22;10301;50.832;4.080;2023-04-24T04:20:38;9.80;99.90
20284;DHT22;10301;50.832;4.080;2023-04-24T04:23:04;9.70;99.90
20284;DHT22;10301;50.832;4.080;2023-04-24T04:25:29;9.80;99.90
20284;DHT22;10301;50.832;4.080;2023-04-24T04:27:55;9.90;99.90
20284;DHT22;10301;50.832;4.080;2023-04-24T04:30:21;10.00;99.90
20284;DHT22;10301;50.832;4.080;2023-04-24T04:32:47;9.90;99.90
20284;DHT22;10301;50.832;4.080;2023-04-24T04:35:12;10.00;99.90
20284;DHT22;10301;50.832;4.080;2023-04-24T04:37:38;9.90;99.90
20284;DHT22;10301;50.832;4.080;2023-04-24T04:40:05;9.80;99.90
20284;DHT22;10301;50.832;4.080;2023-04-24T04:42:33;9.70;99.90
20284;DHT22;10301;50.832;4.080;2023-04-24T04:45:01;9.80;99.90
20284;DHT22;10301;50.832;4.080;2023-04-24T04:47:27;9.70;99.90
20284;DHT22;10301;50.832;4.080;2023-04-24T04:49:54;9.60;99.90
20284;DHT22;10301;50.832;4.080;2023-04-24T04:52:20;9.50;99.90
20284;DHT22;10301;50.832;4.080;2023-04-24T04:54:50;9.50;99.90
20284;DHT22;10301;50.832;4.080;2023-04-24T04:57:15;9.50;99.90
20284;DHT22;10301;50.832;4.080;2023-04-24T04:59:41;9.50;99.90
20284;DHT22;10301;50.832;4.080;2023-04-24T05:02:07;9.70;99.90
20284;DHT22;10301;50.832;4.080;2023-04-24T05:04:33;9.60;99.90
20284;DHT22;10301;50.832;4.080;2023-04-24T05:06:58;9.50;99.90
20284;DHT22;10301;50.832;4.080;2023-04-24T05:09:24;9.40;99.90
20284;DHT22;10301;50.832;4.080;2023-04-24T05:11:52;9.60;99.90
20284;DHT22;10301;50.832;4.080;2023-04-24T05:14:18;9.60;99.90
20284;DHT22;10301;50.832;4.080;2023-04-24T05:16:44;9.60;99.90
20284;DHT22;10301;50.832;4.080;2023-04-24T05:19:10;9.70;99.90
20284;DHT22;10301;50.832;4.080;2023-04-24T05:21:37;9.50;99.90
20284;DHT22;10301;50.832;4.080;2023-04-24T05:24:04;9.60;99.90
20284;DHT22;10301;50.832;4.080;2023-04-24T05:26:30;9.60;99.90
20284;DHT22;10301;50.832;4.080;2023-04-24T05:28:56;9.60;99.90
20284;DHT22;10301;50.832;4.080;2023-04-24T05:31:22;9.50;99.90
20284;DHT22;10301;50.832;4.080;2023-04-24T05:33:47;9.50;99.90
20284;DHT22;10301;50.832;4.080;2023-04-24T05:36:13;9.60;99.90
20284;DHT22;10301;50.832;4.080;2023-04-24T05:38:39;9.60;99.90
20284;DHT22;10301;50.832;4.080;2023-04-24T05:41:04;9.70;99.90
20284;DHT22;10301;50.832;4.080;2023-04-24T05:43:30;9.50;99.90
20284;DHT22;10301;50.832;4.080;2023-04-24T05:45:56;9.40;99.90
20284;DHT22;10301;50.832;4.080;2023-04-24T05:48:22;9.40;99.90
20284;DHT22;10301;50.832;4.080;2023-04-24T05:50:48;9.40;99.90
20284;DHT22;10301;50.832;4.080;2023-04-24T05:53:14;9.40;99.90
20284;DHT22;10301;50.832;4.080;2023-04-24T05:55:39;9.50;99.90
20284;DHT22;10301;50.832;4.080;2023-04-24T05:58:05;9.50;99.90
20284;DHT22;10301;50.832;4.080;2023-04-24T06:00:31;9.50;99.90
20284;DHT22;10301;50.832;4.080;2023-04-24T06:02:59;9.40;99.90
20284;DHT22;10301;50.832;4.080;2023-04-24T06:05:25;9.40;99.90
20284;DHT22;10301;50.832;4.080;2023-04-24T06:07:51;9.50;99.90
20284;DHT22;10301;50.832;4.080;2023-04-24T06:10:17;9.50;99.90
20284;DHT22;10301;50.832;4.080;2023-04-24T06:12:43;9.60;99.90
20284;DHT22;10301;50.832;4.080;2023-04-24T06:15:09;9.70;99.90
20284;DHT22;10301;50.832;4.080;2023-04-24T06:17:35;9.50;99.90
20284;DHT22;10301;50.832;4.080;2023-04-24T06:20:01;9.60;99.90
20284;DHT22;10301;50.832;4.080;2023-04-24T06:22:29;9.60;99.90
20284;DHT22;10301;50.832;4.080;2023-04-24T06:24:55;9.60;99.90
20284;DHT22;10301;50.832;4.080;2023-04-24T06:27:20;9.70;99.90
20284;DHT22;10301;50.832;4.080;2023-04-24T06:29:46;9.70;99.90
20284;DHT22;10301;50.832;4.080;2023-04-24T06:32:18;9.70;99.90
20284;DHT22;10301;50.832;4.080;2023-04-24T06:34:43;9.80;99.90
20284;DHT22;10301;50.832;4.080;2023-04-24T06:37:09;9.90;99.90
20284;DHT22;10301;50.832;4.080;2023-04-24T06:39:35;10.00;99.90
20284;DHT22;10301;50.832;4.080;2023-04-24T06:42:00;10.10;99.90
20284;DHT22;10301;50.832;4.080;2023-04-24T06:44:26;10.10;99.90
20284;DHT22;10301;50.832;4.080;2023-04-24T06:46:52;10.20;99.90
20284;DHT22;10301;50.832;4.080;2023-04-24T06:49:17;10.20;99.90
20284;DHT22;10301;50.832;4.080;2023-04-24T06:51:43;10.20;99.90
20284;DHT22;10301;50.832;4.080;2023-04-24T06:54:09;10.20;99.90
20284;DHT22;10301;50.832;4.080;2023-04-24T06:56:34;10.30;98.90
20284;DHT22;10301;50.832;4.080;2023-04-24T06:59:00;10.30;98.80
20284;DHT22;10301;50.832;4.080;2023-04-24T07:01:26;10.40;99.80
20284;DHT22;10301;50.832;4.080;2023-04-24T07:03:51;10.60;98.90
20284;DHT22;10301;50.832;4.080;2023-04-24T07:06:17;10.80;95.00
20284;DHT22;10301;50.832;4.080;2023-04-24T07:08:46;10.60;94.80
20284;DHT22;10301;50.832;4.080;2023-04-24T07:11:12;10.60;96.40
20284;DHT22;10301;50.832;4.080;2023-04-24T07:13:38;10.60;95.00
20284;DHT22;10301;50.832;4.080;2023-04-24T07:16:07;10.30;96.90
20284;DHT22;10301;50.832;4.080;2023-04-24T07:18:33;10.30;98.60
20284;DHT22;10301;50.832;4.080;2023-04-24T07:20:59;10.40;98.40
20284;DHT22;10301;50.832;4.080;2023-04-24T07:23:25;10.40;97.00
20284;DHT22;10301;50.832;4.080;2023-04-24T07:25:50;10.60;95.20
20284;DHT22;10301;50.832;4.080;2023-04-24T07:28:16;10.50;95.80
20284;DHT22;10301;50.832;4.080;2023-04-24T07:30:43;10.50;97.00
20284;DHT22;10301;50.832;4.080;2023-04-24T07:33:09;10.50;95.80
20284;DHT22;10301;50.832;4.080;2023-04-24T07:35:38;10.90;94.00
20284;DHT22;10301;50.832;4.080;2023-04-24T07:38:04;11.30;90.70
20284;DHT22;10301;50.832;4.080;2023-04-24T07:40:30;11.70;87.20
20284;DHT22;10301;50.832;4.080;2023-04-24T07:42:55;11.80;74.90
20284;DHT22;10301;50.832;4.080;2023-04-24T07:45:21;11.40;80.90
20284;DHT22;10301;50.832;4.080;2023-04-24T07:47:48;11.70;82.50
20284;DHT22;10301;50.832;4.080;2023-04-24T07:50:15;11.70;78.30
20284;DHT22;10301;50.832;4.080;2023-04-24T07:52:41;11.80;78.90
20284;DHT22;10301;50.832;4.080;2023-04-24T07:55:07;11.90;68.50
20284;DHT22;10301;50.832;4.080;2023-04-24T07:57:33;11.90;63.80
20284;DHT22;10301;50.832;4.080;2023-04-24T07:59:59;12.00;63.10
20284;DHT22;10301;50.832;4.080;2023-04-24T08:02:25;11.80;59.90
20284;DHT22;10301;50.832;4.080;2023-04-24T08:04:55;11.60;69.20
20284;DHT22;10301;50.832;4.080;2023-04-24T08:07:21;11.90;65.90
20284;DHT22;10301;50.832;4.080;2023-04-24T08:09:46;12.10;53.90
20284;DHT22;10301;50.832;4.080;2023-04-24T08:12:12;12.00;56.80
20284;DHT22;10301;50.832;4.080;2023-04-24T08:14:38;11.90;60.90
20284;DHT22;10301;50.832;4.080;2023-04-24T08:17:03;11.90;54.50
20284;DHT22;10301;50.832;4.080;2023-04-24T08:19:29;11.80;53.50
20284;DHT22;10301;50.832;4.080;2023-04-24T08:21:55;11.80;55.50
20284;DHT22;10301;50.832;4.080;2023-04-24T08:24:21;11.60;56.40
20284;DHT22;10301;50.832;4.080;2023-04-24T08:26:47;11.80;59.20
20284;DHT22;10301;50.832;4.080;2023-04-24T08:29:15;11.80;48.30
20284;DHT22;10301;50.832;4.080;2023-04-24T08:31:41;12.10;46.80
20284;DHT22;10301;50.832;4.080;2023-04-24T08:34:07;12.00;44.00
20284;DHT22;10301;50.832;4.080;2023-04-24T08:36:32;12.10;35.80
20284;DHT22;10301;50.832;4.080;2023-04-24T08:38:58;12.20;34.60
20284;DHT22;10301;50.832;4.080;2023-04-24T08:41:25;12.30;46.70
20284;DHT22;10301;50.832;4.080;2023-04-24T08:43:52;12.40;47.70
20284;DHT22;10301;50.832;4.080;2023-04-24T08:46:19;12.40;36.50
20284;DHT22;10301;50.832;4.080;2023-04-24T08:48:45;12.70;28.70
20284;DHT22;10301;50.832;4.080;2023-04-24T08:51:11;12.90;16.60
20284;DHT22;10301;50.832;4.080;2023-04-24T08:53:38;13.10;7.90
20284;DHT22;10301;50.832;4.080;2023-04-24T08:56:03;13.00;5.80
20284;DHT22;10301;50.832;4.080;2023-04-24T08:58:31;13.00;9.20
20284;DHT22;10301;50.832;4.080;2023-04-24T09:00:57;13.00;4.40
20284;DHT22;10301;50.832;4.080;2023-04-24T09:03:23;12.90;3.60
20284;DHT22;10301;50.832;4.080;2023-04-24T09:05:50;12.90;1.00
20284;DHT22;10301;50.832;4.080;2023-04-24T09:08:19;12.70;1.00
20284;DHT22;10301;50.832;4.080;2023-04-24T09:10:45;12.80;4.50
20284;DHT22;10301;50.832;4.080;2023-04-24T09:13:11;12.70;8.40
20284;DHT22;10301;50.832;4.080;2023-04-24T09:15:41;12.40;21.90
20284;DHT22;10301;50.832;4.080;2023-04-24T09:18:06;12.30;27.00
20284;DHT22;10301;50.832;4.080;2023-04-24T09:20:32;12.30;27.10
20284;DHT22;10301;50.832;4.080;2023-04-24T09:22:58;12.70;21.50
20284;DHT22;10301;50.832;4.080;2023-04-24T09:25:34;13.10;15.40
20284;DHT22;10301;50.832;4.080;2023-04-24T09:28:04;13.30;1.00
20284;DHT22;10301;50.832;4.080;2023-04-24T09:30:31;13.40;1.00
20284;DHT22;10301;50.832;4.080;2023-04-24T09:33:12;13.40;1.00
20284;DHT22;10301;50.832;4.080;2023-04-24T09:35:41;13.40;1.00
20284;DHT22;10301;50.832;4.080;2023-04-24T09:38:08;13.10;1.00
20284;DHT22;10301;50.832;4.080;2023-04-24T09:40:34;13.10;1.00
20284;DHT22;10301;50.832;4.080;2023-04-24T09:43:00;13.00;1.00
20284;DHT22;10301;50.832;4.080;2023-04-24T09:45:35;12.90;1.00
20284;DHT22;10301;50.832;4.080;2023-04-24T09:48:01;12.70;1.00
20284;DHT22;10301;50.832;4.080;2023-04-24T09:50:26;12.60;1.00
20284;DHT22;10301;50.832;4.080;2023-04-24T09:53:02;12.40;1.00
20284;DHT22;10301;50.832;4.080;2023-04-24T09:55:28;12.50;1.00
20284;DHT22;10301;50.832;4.080;2023-04-24T09:58:01;12.70;1.00
20284;DHT22;10301;50.832;4.080;2023-04-24T10:00:32;12.90;1.00
20284;DHT22;10301;50.832;4.080;2023-04-24T10:03:02;13.20;1.00
20284;DHT22;10301;50.832;4.080;2023-04-24T10:05:33;13.40;1.00
20284;DHT22;10301;50.832;4.080;2023-04-24T10:08:07;13.50;1.00
20284;DHT22;10301;50.832;4.080;2023-04-24T10:10:37;13.60;1.00
20284;DHT22;10301;50.832;4.080;2023-04-24T10:13:04;13.60;1.00
20284;DHT22;10301;50.832;4.080;2023-04-24T10:15:30;14.00;1.00
20284;DHT22;10301;50.832;4.080;2023-04-24T10:17:58;14.10;1.00
20284;DHT22;10301;50.832;4.080;2023-04-24T10:20:26;14.00;1.00
20284;DHT22;10301;50.832;4.080;2023-04-24T10:22:53;13.70;1.00
20284;DHT22;10301;50.832;4.080;2023-04-24T10:25:25;13.60;1.00
20284;DHT22;10301;50.832;4.080;2023-04-24T10:27:52;13.60;1.00
20284;DHT22;10301;50.832;4.080;2023-04-24T10:30:19;13.50;1.00
20284;DHT22;10301;50.832;4.080;2023-04-24T10:32:45;13.80;1.00
20284;DHT22;10301;50.832;4.080;2023-04-24T10:35:15;14.20;1.00
20284;DHT22;10301;50.832;4.080;2023-04-24T10:37:48;14.50;1.00
20284;DHT22;10301;50.832;4.080;2023-04-24T10:40:35;14.30;1.00
20284;DHT22;10301;50.832;4.080;2023-04-24T10:43:05;14.10;1.00
20284;DHT22;10301;50.832;4.080;2023-04-24T10:45:33;14.00;1.00
20284;DHT22;10301;50.832;4.080;2023-04-24T10:48:02;14.00;1.00
20284;DHT22;10301;50.832;4.080;2023-04-24T10:53:17;14.10;1.00
20284;DHT22;10301;50.832;4.080;2023-04-24T10:56:03;14.10;1.00
20284;DHT22;10301;50.832;4.080;2023-04-24T10:58:41;13.90;1.00
20284;DHT22;10301;50.832;4.080;2023-04-24T11:01:32;13.80;1.00
20284;DHT22;10301;50.832;4.080;2023-04-24T11:04:02;13.90;1.00
20284;DHT22;10301;50.832;4.080;2023-04-24T11:06:32;14.10;1.00
20284;DHT22;10301;50.832;4.080;2023-04-24T11:09:06;14.40;1.00
20284;DHT22;10301;50.832;4.080;2023-04-24T11:11:33;14.60;1.00
20284;DHT22;10301;50.832;4.080;2023-04-24T11:16:45;14.70;1.00
20284;DHT22;10301;50.832;4.080;2023-04-24T11:21:46;14.30;1.00
20284;DHT22;10301;50.832;4.080;2023-04-24T11:27:18;14.30;1.00
20284;DHT22;10301;50.832;4.080;2023-04-24T11:32:40;14.50;1.00
20284;DHT22;10301;50.832;4.080;2023-04-24T11:35:07;14.90;1.00
20284;DHT22;10301;50.832;4.080;2023-04-24T11:37:38;15.00;1.00
20284;DHT22;10301;50.832;4.080;2023-04-24T11:40:06;15.10;1.00
20284;DHT22;10301;50.832;4.080;2023-04-24T11:42:37;15.40;1.00
20284;DHT22;10301;50.832;4.080;2023-04-24T11:45:08;15.30;1.00
20284;DHT22;10301;50.832;4.080;2023-04-24T11:47:34;15.20;1.00
20284;DHT22;10301;50.832;4.080;2023-04-24T11:50:01;15.00;1.00
20284;DHT22;10301;50.832;4.080;2023-04-24T11:52:28;14.70;1.00
20284;DHT22;10301;50.832;4.080;2023-04-24T11:54:54;14.50;1.00
20284;DHT22;10301;50.832;4.080;2023-04-24T11:57:24;14.40;1.00
20284;DHT22;10301;50.832;4.080;2023-04-24T11:59:52;14.30;1.00
20284;DHT22;10301;50.832;4.080;2023-04-24T12:02:24;14.30;1.00
20284;DHT22;10301;50.832;4.080;2023-04-24T12:04:51;14.30;1.00
20284;DHT22;10301;50.832;4.080;2023-04-24T12:07:17;14.50;1.00
20284;DHT22;10301;50.832;4.080;2023-04-24T12:09:58;14.50;1.00
20284;DHT22;10301;50.832;4.080;2023-04-24T12:12:26;14.70;1.00
20284;DHT22;10301;50.832;4.080;2023-04-24T12:14:55;15.00;1.00
20284;DHT22;10301;50.832;4.080;2023-04-24T12:17:26;15.00;1.00
20284;DHT22;10301;50.832;4.080;2023-04-24T12:19:52;14.80;1.00
20284;DHT22;10301;50.832;4.080;2023-04-24T12:22:22;14.50;1.00
20284;DHT22;10301;50.832;4.080;2023-04-24T12:25:04;14.30;1.00
20284;DHT22;10301;50.832;4.080;2023-04-24T12:27:33;14.40;1.00
20284;DHT22;10301;50.832;4.080;2023-04-24T12:30:05;14.50;1.00
20284;DHT22;10301;50.832;4.080;2023-04-24T12:32:31;14.40;1.00
20284;DHT22;10301;50.832;4.080;2023-04-24T12:34:57;14.50;1.00
20284;DHT22;10301;50.832;4.080;2023-04-24T12:37:26;14.60;99.90
20284;DHT22;10301;50.832;4.080;2023-04-24T12:42:28;14.40;1.00
20284;DHT22;10301;50.832;4.080;2023-04-24T12:45:04;14.70;1.00
20284;DHT22;10301;50.832;4.080;2023-04-24T12:47:30;15.20;99.90
20284;DHT22;10301;50.832;4.080;2023-04-24T12:49:56;15.20;99.90
20284;DHT22;10301;50.832;4.080;2023-04-24T12:52:23;14.60;1.00
20284;DHT22;10301;50.832;4.080;2023-04-24T12:54:50;14.10;1.00
20284;DHT22;10301;50.832;4.080;2023-04-24T12:57:17;13.70;1.00
20284;DHT22;10301;50.832;4.080;2023-04-24T12:59:43;13.70;1.00
20284;DHT22;10301;50.832;4.080;2023-04-24T13:02:09;13.80;1.00
20284;DHT22;10301;50.832;4.080;2023-04-24T13:04:35;14.20;1.00
20284;DHT22;10301;50.832;4.080;2023-04-24T13:07:01;14.40;1.00
20284;DHT22;10301;50.832;4.080;2023-04-24T13:09:27;14.30;1.00
20284;DHT22;10301;50.832;4.080;2023-04-24T13:11:53;14.20;1.00
20284;DHT22;10301;50.832;4.080;2023-04-24T13:14:19;14.00;1.00
20284;DHT22;10301;50.832;4.080;2023-04-24T13:16:44;14.10;1.00
20284;DHT22;10301;50.832;4.080;2023-04-24T13:19:10;14.20;1.00
20284;DHT22;10301;50.832;4.080;2023-04-24T13:21:36;14.20;1.00
20284;DHT22;10301;50.832;4.080;2023-04-24T13:24:01;14.50;99.90
20284;DHT22;10301;50.832;4.080;2023-04-24T13:26:29;14.80;99.90
20284;DHT22;10301;50.832;4.080;2023-04-24T13:28:55;15.20;99.90
20284;DHT22;10301;50.832;4.080;2023-04-24T13:31:20;15.50;1.00
20284;DHT22;10301;50.832;4.080;2023-04-24T13:33:46;15.40;99.90
20284;DHT22;10301;50.832;4.080;2023-04-24T13:36:12;15.10;1.00
20284;DHT22;10301;50.832;4.080;2023-04-24T13:38:37;15.00;1.00
20284;DHT22;10301;50.832;4.080;2023-04-24T13:41:03;15.10;16.80
20284;DHT22;10301;50.832;4.080;2023-04-24T13:43:29;15.10;1.00
20284;DHT22;10301;50.832;4.080;2023-04-24T13:45:55;15.30;1.00
20284;DHT22;10301;50.832;4.080;2023-04-24T13:48:20;15.30;99.90
20284;DHT22;10301;50.832;4.080;2023-04-24T13:50:46;15.60;99.90
20284;DHT22;10301;50.832;4.080;2023-04-24T13:53:13;15.50;99.90
20284;DHT22;10301;50.832;4.080;2023-04-24T13:55:39;15.40;99.90
20284;DHT22;10301;50.832;4.080;2023-04-24T13:58:05;15.40;1.00
20284;DHT22;10301;50.832;4.080;2023-04-24T14:00:31;15.40;59.30
20284;DHT22;10301;50.832;4.080;2023-04-24T14:02:57;15.40;1.00
20284;DHT22;10301;50.832;4.080;2023-04-24T14:05:23;15.50;99.90
20284;DHT22;10301;50.832;4.080;2023-04-24T14:07:48;15.30;1.00
20284;DHT22;10301;50.832;4.080;2023-04-24T14:10:14;15.10;1.00
20284;DHT22;10301;50.832;4.080;2023-04-24T14:12:40;15.10;99.90
20284;DHT22;10301;50.832;4.080;2023-04-24T14:15:06;14.80;99.90
20284;DHT22;10301;50.832;4.080;2023-04-24T14:17:32;14.70;99.90
20284;DHT22;10301;50.832;4.080;2023-04-24T14:19:58;14.70;17.60
20284;DHT22;10301;50.832;4.080;2023-04-24T14:22:25;14.70;1.00
20284;DHT22;10301;50.832;4.080;2023-04-24T14:24:51;14.80;99.90
20284;DHT22;10301;50.832;4.080;2023-04-24T14:27:17;14.80;1.00
20284;DHT22;10301;50.832;4.080;2023-04-24T14:29:42;14.60;99.90
20284;DHT22;10301;50.832;4.080;2023-04-24T14:32:10;14.70;99.90
20284;DHT22;10301;50.832;4.080;2023-04-24T14:34:36;14.80;99.90
20284;DHT22;10301;50.832;4.080;2023-04-24T14:37:01;15.10;99.90
20284;DHT22;10301;50.832;4.080;2023-04-24T14:39:28;15.10;1.00
20284;DHT22;10301;50.832;4.080;2023-04-24T14:41:54;15.10;1.00
20284;DHT22;10301;50.832;4.080;2023-04-24T14:44:20;15.00;99.90
20284;DHT22;10301;50.832;4.080;2023-04-24T14:46:46;15.10;1.00
20284;DHT22;10301;50.832;4.080;2023-04-24T14:49:12;14.90;1.00
20284;DHT22;10301;50.832;4.080;2023-04-24T14:51:38;14.80;99.90
20284;DHT22;10301;50.832;4.080;2023-04-24T14:54:03;14.80;1.00
20284;DHT22;10301;50.832;4.080;2023-04-24T14:56:29;14.80;1.00
20284;DHT22;10301;50.832;4.080;2023-04-24T14:58:55;14.80;1.00
20284;DHT22;10301;50.832;4.080;2023-04-24T15:01:21;14.80;1.00
20284;DHT22;10301;50.832;4.080;2023-04-24T15:03:47;15.00;1.00
20284;DHT22;10301;50.832;4.080;2023-04-24T15:06:12;15.20;99.90
20284;DHT22;10301;50.832;4.080;2023-04-24T15:08:38;15.20;99.90
20284;DHT22;10301;50.832;4.080;2023-04-24T15:11:04;15.10;99.90
20284;DHT22;10301;50.832;4.080;2023-04-24T15:13:30;14.90;99.90
20284;DHT22;10301;50.832;4.080;2023-04-24T15:15:56;14.80;99.90
20284;DHT22;10301;50.832;4.080;2023-04-24T15:18:22;14.90;1.00
20284;DHT22;10301;50.832;4.080;2023-04-24T15:20:47;15.00;1.00
20284;DHT22;10301;50.832;4.080;2023-04-24T15:23:13;15.20;1.00
20284;DHT22;10301;50.832;4.080;2023-04-24T15:25:39;15.30;1.00
20284;DHT22;10301;50.832;4.080;2023-04-24T15:28:05;15.30;99.90
20284;DHT22;10301;50.832;4.080;2023-04-24T15:30:31;15.30;1.00
20284;DHT22;10301;50.832;4.080;2023-04-24T15:32:57;15.30;1.00
20284;DHT22;10301;50.832;4.080;2023-04-24T15:35:23;15.30;1.00
20284;DHT22;10301;50.832;4.080;2023-04-24T15:37:48;15.20;1.00
20284;DHT22;10301;50.832;4.080;2023-04-24T15:40:14;15.10;1.00
20284;DHT22;10301;50.832;4.080;2023-04-24T15:42:42;14.90;99.90
20284;DHT22;10301;50.832;4.080;2023-04-24T15:45:08;14.60;1.00
20284;DHT22;10301;50.832;4.080;2023-04-24T15:47:35;14.50;1.00
20284;DHT22;10301;50.832;4.080;2023-04-24T15:50:02;14.40;91.70
20284;DHT22;10301;50.832;4.080;2023-04-24T15:52:28;14.20;1.00
20284;DHT22;10301;50.832;4.080;2023-04-24T15:54:54;13.90;1.00